Altmar, New York
Current Conditions -  °F | °C
As of 4:25 PM on Saturday 25 Oct 2014 (Local Time) from KFZY Reporting Station
Light Rain Light Rain  
Wind Chill: 59°   Ceiling: 5500
Heat Index: 59°   Visibility: 3mi
Dew Point: 50°   Wind: 5mph
Humidity: 72%   Direction: NA
Pressure: 29.55"   Gusts: NA
Location:  43.51°N, 76°W
Report Text: KFZY 252025Z AUTO VRB04KT 3SM -RA SCT047 BKN055 OVC075 15/10 A2955 RMK AO2 LTG DSNT N RAB1956 P0012 T01500100
Loading
Personal Weather Stations






























Interactive Weather Map
Tropical Storm Tracking
New forecast layout! Learn more

10-Day Weather Forecast

Advertisements
Track Severe Weather on mobile